sensor_id;sensor_type;location;lat;lon;timestamp;temperature;humidity
22996;DHT22;11664;49.774;8.650;2024-02-15T00:01:46;10.90;99.90
22996;DHT22;11664;49.774;8.650;2024-02-15T00:04:14;10.90;99.90
22996;DHT22;11664;49.774;8.650;2024-02-15T00:06:46;10.90;99.90
22996;DHT22;11664;49.774;8.650;2024-02-15T00:09:11;10.90;99.90
22996;DHT22;11664;49.774;8.650;2024-02-15T00:11:37;11.00;99.90
22996;DHT22;11664;49.774;8.650;2024-02-15T00:14:10;11.00;99.90
22996;DHT22;11664;49.774;8.650;2024-02-15T00:16:46;11.00;99.90
22996;DHT22;11664;49.774;8.650;2024-02-15T00:19:21;11.00;99.90
22996;DHT22;11664;49.774;8.650;2024-02-15T00:21:47;11.00;99.90
22996;DHT22;11664;49.774;8.650;2024-02-15T00:24:13;11.00;99.90
22996;DHT22;11664;49.774;8.650;2024-02-15T00:26:40;11.00;99.90
22996;DHT22;11664;49.774;8.650;2024-02-15T00:29:09;11.00;99.90
22996;DHT22;11664;49.774;8.650;2024-02-15T00:31:41;11.00;99.90
22996;DHT22;11664;49.774;8.650;2024-02-15T00:34:06;11.00;99.90
22996;DHT22;11664;49.774;8.650;2024-02-15T00:36:37;11.00;99.90
22996;DHT22;11664;49.774;8.650;2024-02-15T00:39:05;11.00;99.90
22996;DHT22;11664;49.774;8.650;2024-02-15T00:41:37;11.10;99.90
22996;DHT22;11664;49.774;8.650;2024-02-15T00:44:08;11.00;99.90
22996;DHT22;11664;49.774;8.650;2024-02-15T00:46:34;11.00;99.90
22996;DHT22;11664;49.774;8.650;2024-02-15T00:49:03;11.00;99.90
22996;DHT22;11664;49.774;8.650;2024-02-15T00:51:37;11.00;99.90
22996;DHT22;11664;49.774;8.650;2024-02-15T00:54:09;11.10;99.90
22996;DHT22;11664;49.774;8.650;2024-02-15T00:56:37;11.10;99.90
22996;DHT22;11664;49.774;8.650;2024-02-15T00:59:03;11.10;99.90
22996;DHT22;11664;49.774;8.650;2024-02-15T01:01:28;11.00;99.90
22996;DHT22;11664;49.774;8.650;2024-02-15T01:03:58;11.10;99.90
22996;DHT22;11664;49.774;8.650;2024-02-15T01:06:27;11.00;99.90
22996;DHT22;11664;49.774;8.650;2024-02-15T01:08:59;11.00;99.90
22996;DHT22;11664;49.774;8.650;2024-02-15T01:11:32;11.00;99.90
22996;DHT22;11664;49.774;8.650;2024-02-15T01:14:04;11.10;99.90
22996;DHT22;11664;49.774;8.650;2024-02-15T01:16:33;11.10;99.90
22996;DHT22;11664;49.774;8.650;2024-02-15T01:19:04;11.10;99.90
22996;DHT22;11664;49.774;8.650;2024-02-15T01:21:30;11.10;99.90
22996;DHT22;11664;49.774;8.650;2024-02-15T01:23:56;11.10;99.90
22996;DHT22;11664;49.774;8.650;2024-02-15T01:26:22;11.10;99.90
22996;DHT22;11664;49.774;8.650;2024-02-15T01:28:49;11.10;99.90
22996;DHT22;11664;49.774;8.650;2024-02-15T01:31:14;11.20;99.90
22996;DHT22;11664;49.774;8.650;2024-02-15T01:33:45;11.20;99.90
22996;DHT22;11664;49.774;8.650;2024-02-15T01:36:17;11.10;99.90
22996;DHT22;11664;49.774;8.650;2024-02-15T01:38:49;11.20;99.90
22996;DHT22;11664;49.774;8.650;2024-02-15T01:41:20;11.20;99.90
22996;DHT22;11664;49.774;8.650;2024-02-15T01:43:46;11.20;99.90
22996;DHT22;11664;49.774;8.650;2024-02-15T01:46:28;11.20;99.90
22996;DHT22;11664;49.774;8.650;2024-02-15T01:49:01;11.10;99.90
22996;DHT22;11664;49.774;8.650;2024-02-15T01:51:27;11.10;99.90
22996;DHT22;11664;49.774;8.650;2024-02-15T01:53:58;11.10;99.90
22996;DHT22;11664;49.774;8.650;2024-02-15T01:56:24;11.10;99.90
22996;DHT22;11664;49.774;8.650;2024-02-15T01:58:54;11.10;99.90
22996;DHT22;11664;49.774;8.650;2024-02-15T02:01:20;11.10;99.90
22996;DHT22;11664;49.774;8.650;2024-02-15T02:03:50;11.10;99.90
22996;DHT22;11664;49.774;8.650;2024-02-15T02:06:16;11.10;99.90
22996;DHT22;11664;49.774;8.650;2024-02-15T02:08:47;11.10;99.90
22996;DHT22;11664;49.774;8.650;2024-02-15T02:11:14;11.20;99.90
22996;DHT22;11664;49.774;8.650;2024-02-15T02:13:45;11.20;99.90
22996;DHT22;11664;49.774;8.650;2024-02-15T02:16:30;11.10;99.90
22996;DHT22;11664;49.774;8.650;2024-02-15T02:19:00;11.20;99.90
22996;DHT22;11664;49.774;8.650;2024-02-15T02:21:27;11.20;99.90
22996;DHT22;11664;49.774;8.650;2024-02-15T02:24:31;11.20;99.90
22996;DHT22;11664;49.774;8.650;2024-02-15T02:27:09;11.10;99.90
22996;DHT22;11664;49.774;8.650;2024-02-15T02:29:35;11.20;99.90
22996;DHT22;11664;49.774;8.650;2024-02-15T02:32:01;11.10;99.90
22996;DHT22;11664;49.774;8.650;2024-02-15T02:34:30;11.10;99.90
22996;DHT22;11664;49.774;8.650;2024-02-15T02:37:01;11.20;99.90
22996;DHT22;11664;49.774;8.650;2024-02-15T02:39:34;11.10;99.90
22996;DHT22;11664;49.774;8.650;2024-02-15T02:42:12;11.10;99.90
22996;DHT22;11664;49.774;8.650;2024-02-15T02:44:47;11.10;99.90
22996;DHT22;11664;49.774;8.650;2024-02-15T02:47:19;11.10;99.90
22996;DHT22;11664;49.774;8.650;2024-02-15T02:49:44;11.10;99.90
22996;DHT22;11664;49.774;8.650;2024-02-15T02:52:12;11.10;99.90
22996;DHT22;11664;49.774;8.650;2024-02-15T02:54:39;11.10;99.90
22996;DHT22;11664;49.774;8.650;2024-02-15T02:57:09;11.10;99.90
22996;DHT22;11664;49.774;8.650;2024-02-15T02:59:38;11.10;99.90
22996;DHT22;11664;49.774;8.650;2024-02-15T03:02:05;11.10;99.90
22996;DHT22;11664;49.774;8.650;2024-02-15T03:04:40;11.10;99.90
22996;DHT22;11664;49.774;8.650;2024-02-15T03:07:06;11.10;99.90
22996;DHT22;11664;49.774;8.650;2024-02-15T03:09:37;11.10;99.90
22996;DHT22;11664;49.774;8.650;2024-02-15T03:12:03;11.10;99.90
22996;DHT22;11664;49.774;8.650;2024-02-15T03:14:29;11.20;99.90
22996;DHT22;11664;49.774;8.650;2024-02-15T03:16:59;11.20;99.90
22996;DHT22;11664;49.774;8.650;2024-02-15T03:19:28;11.20;99.90
22996;DHT22;11664;49.774;8.650;2024-02-15T03:21:53;11.20;99.90
22996;DHT22;11664;49.774;8.650;2024-02-15T03:24:22;11.20;99.90
22996;DHT22;11664;49.774;8.650;2024-02-15T03:26:56;11.20;99.90
22996;DHT22;11664;49.774;8.650;2024-02-15T03:29:28;11.20;99.90
22996;DHT22;11664;49.774;8.650;2024-02-15T03:31:57;11.20;99.90
22996;DHT22;11664;49.774;8.650;2024-02-15T03:34:32;11.20;99.90
22996;DHT22;11664;49.774;8.650;2024-02-15T03:37:03;11.20;99.90
22996;DHT22;11664;49.774;8.650;2024-02-15T03:39:35;11.20;99.90
22996;DHT22;11664;49.774;8.650;2024-02-15T03:42:00;11.20;99.90
22996;DHT22;11664;49.774;8.650;2024-02-15T03:44:32;11.20;99.90
22996;DHT22;11664;49.774;8.650;2024-02-15T03:46:58;11.10;99.90
22996;DHT22;11664;49.774;8.650;2024-02-15T03:49:27;11.20;99.90
22996;DHT22;11664;49.774;8.650;2024-02-15T03:51:55;11.10;99.90
22996;DHT22;11664;49.774;8.650;2024-02-15T03:54:25;11.20;99.90
22996;DHT22;11664;49.774;8.650;2024-02-15T03:56:52;11.20;99.90
22996;DHT22;11664;49.774;8.650;2024-02-15T03:59:24;11.20;99.90
22996;DHT22;11664;49.774;8.650;2024-02-15T04:01:57;11.20;99.90
22996;DHT22;11664;49.774;8.650;2024-02-15T04:04:23;11.30;99.90
22996;DHT22;11664;49.774;8.650;2024-02-15T04:06:55;11.30;99.90
22996;DHT22;11664;49.774;8.650;2024-02-15T04:09:23;11.30;99.90
22996;DHT22;11664;49.774;8.650;2024-02-15T04:11:49;11.30;99.90
22996;DHT22;11664;49.774;8.650;2024-02-15T04:14:27;11.30;99.90
22996;DHT22;11664;49.774;8.650;2024-02-15T04:16:56;11.30;99.90
22996;DHT22;11664;49.774;8.650;2024-02-15T04:19:25;11.30;99.90
22996;DHT22;11664;49.774;8.650;2024-02-15T04:22:03;11.20;99.90
22996;DHT22;11664;49.774;8.650;2024-02-15T04:24:38;11.20;99.90
22996;DHT22;11664;49.774;8.650;2024-02-15T04:27:11;11.20;99.90
22996;DHT22;11664;49.774;8.650;2024-02-15T04:29:52;11.20;99.90
22996;DHT22;11664;49.774;8.650;2024-02-15T04:32:27;11.30;99.90
22996;DHT22;11664;49.774;8.650;2024-02-15T04:35:00;11.30;99.90
22996;DHT22;11664;49.774;8.650;2024-02-15T04:37:26;11.20;99.90
22996;DHT22;11664;49.774;8.650;2024-02-15T04:39:58;11.20;99.90
22996;DHT22;11664;49.774;8.650;2024-02-15T04:42:24;11.20;99.90
22996;DHT22;11664;49.774;8.650;2024-02-15T04:44:59;11.20;99.90
22996;DHT22;11664;49.774;8.650;2024-02-15T04:47:27;11.20;99.90
22996;DHT22;11664;49.774;8.650;2024-02-15T04:49:55;11.20;99.90
22996;DHT22;11664;49.774;8.650;2024-02-15T04:52:21;11.20;99.90
22996;DHT22;11664;49.774;8.650;2024-02-15T04:54:58;11.10;99.90
22996;DHT22;11664;49.774;8.650;2024-02-15T04:57:45;11.20;99.90
22996;DHT22;11664;49.774;8.650;2024-02-15T05:00:13;11.30;99.90
22996;DHT22;11664;49.774;8.650;2024-02-15T05:02:43;11.20;99.90
22996;DHT22;11664;49.774;8.650;2024-02-15T05:05:10;11.20;99.90
22996;DHT22;11664;49.774;8.650;2024-02-15T05:07:38;11.20;99.90
22996;DHT22;11664;49.774;8.650;2024-02-15T05:10:10;11.20;99.90
22996;DHT22;11664;49.774;8.650;2024-02-15T05:12:39;11.20;99.90
22996;DHT22;11664;49.774;8.650;2024-02-15T05:15:09;11.20;99.90
22996;DHT22;11664;49.774;8.650;2024-02-15T05:17:38;11.20;99.90
22996;DHT22;11664;49.774;8.650;2024-02-15T05:20:15;11.20;99.90
22996;DHT22;11664;49.774;8.650;2024-02-15T05:22:41;11.20;99.90
22996;DHT22;11664;49.774;8.650;2024-02-15T05:25:13;11.30;99.90
22996;DHT22;11664;49.774;8.650;2024-02-15T05:27:38;11.30;99.90
22996;DHT22;11664;49.774;8.650;2024-02-15T05:30:04;11.30;99.90
22996;DHT22;11664;49.774;8.650;2024-02-15T05:32:38;11.30;99.90
22996;DHT22;11664;49.774;8.650;2024-02-15T05:35:11;11.30;99.90
22996;DHT22;11664;49.774;8.650;2024-02-15T05:37:57;11.20;99.90
22996;DHT22;11664;49.774;8.650;2024-02-15T05:40:29;11.20;99.90
22996;DHT22;11664;49.774;8.650;2024-02-15T05:42:56;11.30;99.90
22996;DHT22;11664;49.774;8.650;2024-02-15T05:45:29;11.20;99.90
22996;DHT22;11664;49.774;8.650;2024-02-15T05:47:58;11.20;99.90
22996;DHT22;11664;49.774;8.650;2024-02-15T05:50:30;11.20;99.90
22996;DHT22;11664;49.774;8.650;2024-02-15T05:52:56;11.20;99.90
22996;DHT22;11664;49.774;8.650;2024-02-15T05:55:26;11.30;99.90
22996;DHT22;11664;49.774;8.650;2024-02-15T05:57:52;11.20;99.90
22996;DHT22;11664;49.774;8.650;2024-02-15T06:00:21;11.20;99.90
22996;DHT22;11664;49.774;8.650;2024-02-15T06:02:46;11.20;99.90
22996;DHT22;11664;49.774;8.650;2024-02-15T06:05:12;11.20;99.90
22996;DHT22;11664;49.774;8.650;2024-02-15T06:07:38;11.30;99.90
22996;DHT22;11664;49.774;8.650;2024-02-15T06:10:08;11.30;99.90
22996;DHT22;11664;49.774;8.650;2024-02-15T06:12:36;11.30;99.90
22996;DHT22;11664;49.774;8.650;2024-02-15T06:15:04;11.30;99.90
22996;DHT22;11664;49.774;8.650;2024-02-15T06:17:30;11.30;99.90
22996;DHT22;11664;49.774;8.650;2024-02-15T06:19:59;11.30;99.90
22996;DHT22;11664;49.774;8.650;2024-02-15T06:22:33;11.30;99.90
22996;DHT22;11664;49.774;8.650;2024-02-15T06:25:05;11.40;99.90
22996;DHT22;11664;49.774;8.650;2024-02-15T06:27:34;11.40;99.90
22996;DHT22;11664;49.774;8.650;2024-02-15T06:30:09;11.40;99.90
22996;DHT22;11664;49.774;8.650;2024-02-15T06:33:06;11.40;99.90
22996;DHT22;11664;49.774;8.650;2024-02-15T06:35:53;11.30;99.90
22996;DHT22;11664;49.774;8.650;2024-02-15T06:38:37;11.40;99.90
22996;DHT22;11664;49.774;8.650;2024-02-15T06:44:44;11.40;99.90
22996;DHT22;11664;49.774;8.650;2024-02-15T06:47:10;11.40;99.90
22996;DHT22;11664;49.774;8.650;2024-02-15T06:49:37;11.40;99.90
22996;DHT22;11664;49.774;8.650;2024-02-15T06:52:06;11.40;99.90
22996;DHT22;11664;49.774;8.650;2024-02-15T06:54:33;11.30;99.90
22996;DHT22;11664;49.774;8.650;2024-02-15T06:57:07;11.40;99.90
22996;DHT22;11664;49.774;8.650;2024-02-15T06:59:33;11.40;99.90
22996;DHT22;11664;49.774;8.650;2024-02-15T07:02:08;11.50;99.90
22996;DHT22;11664;49.774;8.650;2024-02-15T07:04:39;11.60;99.90
22996;DHT22;11664;49.774;8.650;2024-02-15T07:07:08;11.60;99.90
22996;DHT22;11664;49.774;8.650;2024-02-15T07:09:40;11.60;99.90
22996;DHT22;11664;49.774;8.650;2024-02-15T07:12:05;11.60;99.90
22996;DHT22;11664;49.774;8.650;2024-02-15T07:14:44;11.60;99.90
22996;DHT22;11664;49.774;8.650;2024-02-15T07:17:10;11.60;99.90
22996;DHT22;11664;49.774;8.650;2024-02-15T07:19:36;11.60;99.90
22996;DHT22;11664;49.774;8.650;2024-02-15T07:22:10;11.80;99.90
22996;DHT22;11664;49.774;8.650;2024-02-15T07:24:42;11.70;99.90
22996;DHT22;11664;49.774;8.650;2024-02-15T07:27:08;11.70;99.90
22996;DHT22;11664;49.774;8.650;2024-02-15T07:29:38;11.80;99.90
22996;DHT22;11664;49.774;8.650;2024-02-15T07:32:04;11.80;99.90
22996;DHT22;11664;49.774;8.650;2024-02-15T07:34:49;11.80;99.90
22996;DHT22;11664;49.774;8.650;2024-02-15T07:37:18;11.90;99.90
22996;DHT22;11664;49.774;8.650;2024-02-15T07:39:46;11.90;99.90
22996;DHT22;11664;49.774;8.650;2024-02-15T07:42:12;11.90;99.90
22996;DHT22;11664;49.774;8.650;2024-02-15T07:44:38;12.00;99.90
22996;DHT22;11664;49.774;8.650;2024-02-15T07:47:03;12.00;99.90
22996;DHT22;11664;49.774;8.650;2024-02-15T07:49:31;12.00;99.90
22996;DHT22;11664;49.774;8.650;2024-02-15T07:52:08;12.10;99.90
22996;DHT22;11664;49.774;8.650;2024-02-15T07:54:46;12.10;99.90
22996;DHT22;11664;49.774;8.650;2024-02-15T07:57:15;12.20;99.90
22996;DHT22;11664;49.774;8.650;2024-02-15T07:59:48;12.20;99.90
22996;DHT22;11664;49.774;8.650;2024-02-15T08:02:14;12.30;99.90
22996;DHT22;11664;49.774;8.650;2024-02-15T08:04:46;12.30;99.90
22996;DHT22;11664;49.774;8.650;2024-02-15T08:07:13;12.30;99.90
22996;DHT22;11664;49.774;8.650;2024-02-15T08:09:42;12.40;99.90
22996;DHT22;11664;49.774;8.650;2024-02-15T08:12:12;12.40;99.90
22996;DHT22;11664;49.774;8.650;2024-02-15T08:14:43;12.40;99.90
22996;DHT22;11664;49.774;8.650;2024-02-15T08:17:21;12.40;99.90
22996;DHT22;11664;49.774;8.650;2024-02-15T08:19:46;12.40;99.90
22996;DHT22;11664;49.774;8.650;2024-02-15T08:22:18;12.40;99.90
22996;DHT22;11664;49.774;8.650;2024-02-15T08:24:54;12.40;99.90
22996;DHT22;11664;49.774;8.650;2024-02-15T08:27:27;12.50;99.90
22996;DHT22;11664;49.774;8.650;2024-02-15T08:29:52;12.50;99.90
22996;DHT22;11664;49.774;8.650;2024-02-15T08:32:22;12.50;99.90
22996;DHT22;11664;49.774;8.650;2024-02-15T08:34:56;12.60;99.90
22996;DHT22;11664;49.774;8.650;2024-02-15T08:37:22;12.60;99.90
22996;DHT22;11664;49.774;8.650;2024-02-15T08:39:51;12.60;99.90
22996;DHT22;11664;49.774;8.650;2024-02-15T08:42:18;12.70;99.90
22996;DHT22;11664;49.774;8.650;2024-02-15T08:44:47;12.70;99.90
22996;DHT22;11664;49.774;8.650;2024-02-15T08:47:13;12.70;99.90
22996;DHT22;11664;49.774;8.650;2024-02-15T08:49:39;12.70;99.90
22996;DHT22;11664;49.774;8.650;2024-02-15T08:52:06;12.80;99.90
22996;DHT22;11664;49.774;8.650;2024-02-15T08:54:38;12.90;99.90
22996;DHT22;11664;49.774;8.650;2024-02-15T08:57:05;12.90;99.90
22996;DHT22;11664;49.774;8.650;2024-02-15T08:59:38;13.00;99.90
22996;DHT22;11664;49.774;8.650;2024-02-15T09:02:04;13.00;99.90
22996;DHT22;11664;49.774;8.650;2024-02-15T09:04:31;13.10;99.90
22996;DHT22;11664;49.774;8.650;2024-02-15T09:06:56;13.00;99.90
22996;DHT22;11664;49.774;8.650;2024-02-15T09:09:22;13.10;99.90
22996;DHT22;11664;49.774;8.650;2024-02-15T09:11:51;13.10;99.90
22996;DHT22;11664;49.774;8.650;2024-02-15T09:14:23;13.10;99.90
22996;DHT22;11664;49.774;8.650;2024-02-15T09:16:49;13.10;99.90
22996;DHT22;11664;49.774;8.650;2024-02-15T09:19:14;13.10;99.90
22996;DHT22;11664;49.774;8.650;2024-02-15T09:21:40;13.20;99.90
22996;DHT22;11664;49.774;8.650;2024-02-15T09:24:08;13.30;99.90
22996;DHT22;11664;49.774;8.650;2024-02-15T09:26:34;13.30;99.90
22996;DHT22;11664;49.774;8.650;2024-02-15T09:28:59;13.30;99.90
22996;DHT22;11664;49.774;8.650;2024-02-15T09:31:25;13.30;99.90
22996;DHT22;11664;49.774;8.650;2024-02-15T09:33:50;13.30;99.90
22996;DHT22;11664;49.774;8.650;2024-02-15T09:36:25;13.40;99.90
22996;DHT22;11664;49.774;8.650;2024-02-15T09:38:50;13.40;99.90
22996;DHT22;11664;49.774;8.650;2024-02-15T09:41:25;13.40;99.90
22996;DHT22;11664;49.774;8.650;2024-02-15T09:43:53;13.40;99.90
22996;DHT22;11664;49.774;8.650;2024-02-15T09:46:22;13.40;99.90
22996;DHT22;11664;49.774;8.650;2024-02-15T09:48:52;13.50;99.90
22996;DHT22;11664;49.774;8.650;2024-02-15T09:51:25;13.50;99.90
22996;DHT22;11664;49.774;8.650;2024-02-15T09:53:52;13.60;99.90
22996;DHT22;11664;49.774;8.650;2024-02-15T09:56:19;13.60;99.90
22996;DHT22;11664;49.774;8.650;2024-02-15T09:58:50;13.80;99.90
22996;DHT22;11664;49.774;8.650;2024-02-15T10:01:23;14.00;99.90
22996;DHT22;11664;49.774;8.650;2024-02-15T10:03:50;14.00;99.90
22996;DHT22;11664;49.774;8.650;2024-02-15T10:06:17;14.00;99.90
22996;DHT22;11664;49.774;8.650;2024-02-15T10:08:46;14.00;99.90
22996;DHT22;11664;49.774;8.650;2024-02-15T10:11:27;14.10;99.90
22996;DHT22;11664;49.774;8.650;2024-02-15T10:13:53;14.10;99.90
22996;DHT22;11664;49.774;8.650;2024-02-15T10:16:22;14.10;99.90
22996;DHT22;11664;49.774;8.650;2024-02-15T10:19:08;14.30;99.90
22996;DHT22;11664;49.774;8.650;2024-02-15T10:21:34;14.40;99.90
22996;DHT22;11664;49.774;8.650;2024-02-15T10:24:07;14.50;99.90
22996;DHT22;11664;49.774;8.650;2024-02-15T10:26:34;14.60;99.90
22996;DHT22;11664;49.774;8.650;2024-02-15T10:29:26;14.70;99.90
22996;DHT22;11664;49.774;8.650;2024-02-15T10:31:53;14.90;99.90
22996;DHT22;11664;49.774;8.650;2024-02-15T10:34:20;14.90;99.90
22996;DHT22;11664;49.774;8.650;2024-02-15T10:36:49;15.00;99.90
22996;DHT22;11664;49.774;8.650;2024-02-15T10:39:24;14.80;99.90
22996;DHT22;11664;49.774;8.650;2024-02-15T10:41:57;14.70;99.90
22996;DHT22;11664;49.774;8.650;2024-02-15T10:44:28;14.90;99.90
22996;DHT22;11664;49.774;8.650;2024-02-15T10:46:54;14.90;99.90
22996;DHT22;11664;49.774;8.650;2024-02-15T10:49:25;15.00;99.90
22996;DHT22;11664;49.774;8.650;2024-02-15T10:52:17;15.00;99.90
22996;DHT22;11664;49.774;8.650;2024-02-15T10:54:52;15.00;99.90
22996;DHT22;11664;49.774;8.650;2024-02-15T10:57:31;14.80;99.90
22996;DHT22;11664;49.774;8.650;2024-02-15T11:00:14;15.00;99.90
22996;DHT22;11664;49.774;8.650;2024-02-15T11:03:07;15.30;99.90
22996;DHT22;11664;49.774;8.650;2024-02-15T11:05:40;15.20;99.90
22996;DHT22;11664;49.774;8.650;2024-02-15T11:08:13;15.00;99.90
22996;DHT22;11664;49.774;8.650;2024-02-15T11:10:39;15.20;99.90
22996;DHT22;11664;49.774;8.650;2024-02-15T11:13:15;15.20;99.90
22996;DHT22;11664;49.774;8.650;2024-02-15T11:15:56;15.40;99.90
22996;DHT22;11664;49.774;8.650;2024-02-15T11:18:49;15.60;99.90
22996;DHT22;11664;49.774;8.650;2024-02-15T11:21:54;15.90;99.90
22996;DHT22;11664;49.774;8.650;2024-02-15T11:24:28;16.10;99.90
22996;DHT22;11664;49.774;8.650;2024-02-15T11:27:02;16.00;99.90
22996;DHT22;11664;49.774;8.650;2024-02-15T11:29:48;15.80;99.90
22996;DHT22;11664;49.774;8.650;2024-02-15T11:32:49;16.00;99.90
22996;DHT22;11664;49.774;8.650;2024-02-15T11:35:35;16.10;99.90
22996;DHT22;11664;49.774;8.650;2024-02-15T11:38:30;16.10;99.90
22996;DHT22;11664;49.774;8.650;2024-02-15T11:41:06;16.10;99.90
22996;DHT22;11664;49.774;8.650;2024-02-15T11:46:23;16.10;99.90
22996;DHT22;11664;49.774;8.650;2024-02-15T11:48:52;16.40;99.90
22996;DHT22;11664;49.774;8.650;2024-02-15T11:51:33;16.60;99.90
22996;DHT22;11664;49.774;8.650;2024-02-15T11:56:56;16.80;99.90
22996;DHT22;11664;49.774;8.650;2024-02-15T11:59:41;16.70;99.90
22996;DHT22;11664;49.774;8.650;2024-02-15T12:02:38;16.60;99.90
22996;DHT22;11664;49.774;8.650;2024-02-15T12:05:28;16.90;99.90
22996;DHT22;11664;49.774;8.650;2024-02-15T12:08:13;16.60;99.90
22996;DHT22;11664;49.774;8.650;2024-02-15T12:11:00;16.70;99.90
22996;DHT22;11664;49.774;8.650;2024-02-15T12:13:51;16.70;99.90
22996;DHT22;11664;49.774;8.650;2024-02-15T12:16:44;16.30;99.90
22996;DHT22;11664;49.774;8.650;2024-02-15T12:19:35;16.50;99.90
22996;DHT22;11664;49.774;8.650;2024-02-15T12:22:01;16.90;99.90
22996;DHT22;11664;49.774;8.650;2024-02-15T12:24:32;17.00;99.90
22996;DHT22;11664;49.774;8.650;2024-02-15T12:27:04;17.00;99.90
22996;DHT22;11664;49.774;8.650;2024-02-15T12:29:33;17.20;99.90
22996;DHT22;11664;49.774;8.650;2024-02-15T12:32:00;17.00;99.90
22996;DHT22;11664;49.774;8.650;2024-02-15T12:34:29;17.10;99.90
22996;DHT22;11664;49.774;8.650;2024-02-15T12:37:10;16.80;99.90
22996;DHT22;11664;49.774;8.650;2024-02-15T12:39:41;17.30;99.90
22996;DHT22;11664;49.774;8.650;2024-02-15T12:42:19;17.40;99.90
22996;DHT22;11664;49.774;8.650;2024-02-15T12:44:51;17.10;99.90
22996;DHT22;11664;49.774;8.650;2024-02-15T12:47:23;17.00;99.90
22996;DHT22;11664;49.774;8.650;2024-02-15T12:49:52;16.90;99.90
22996;DHT22;11664;49.774;8.650;2024-02-15T12:52:35;17.10;99.90
22996;DHT22;11664;49.774;8.650;2024-02-15T12:55:20;16.90;99.90
22996;DHT22;11664;49.774;8.650;2024-02-15T12:57:50;16.60;99.90
22996;DHT22;11664;49.774;8.650;2024-02-15T13:00:24;16.80;99.90
22996;DHT22;11664;49.774;8.650;2024-02-15T13:03:08;16.80;99.90
22996;DHT22;11664;49.774;8.650;2024-02-15T13:05:35;16.60;99.90
22996;DHT22;11664;49.774;8.650;2024-02-15T13:08:10;16.60;99.90
22996;DHT22;11664;49.774;8.650;2024-02-15T13:10:48;16.50;99.90
22996;DHT22;11664;49.774;8.650;2024-02-15T13:13:20;16.70;99.90
22996;DHT22;11664;49.774;8.650;2024-02-15T13:15:46;16.40;99.90
22996;DHT22;11664;49.774;8.650;2024-02-15T13:18:12;16.60;99.90
22996;DHT22;11664;49.774;8.650;2024-02-15T13:20:48;16.60;99.90
22996;DHT22;11664;49.774;8.650;2024-02-15T13:23:24;16.60;99.90
22996;DHT22;11664;49.774;8.650;2024-02-15T13:25:54;16.40;99.90
22996;DHT22;11664;49.774;8.650;2024-02-15T13:28:25;16.40;99.90
22996;DHT22;11664;49.774;8.650;2024-02-15T13:30:53;16.30;99.90
22996;DHT22;11664;49.774;8.650;2024-02-15T13:33:30;16.50;99.90
22996;DHT22;11664;49.774;8.650;2024-02-15T13:36:00;16.50;99.90
22996;DHT22;11664;49.774;8.650;2024-02-15T13:38:25;16.50;99.90
22996;DHT22;11664;49.774;8.650;2024-02-15T13:41:04;16.30;99.90
22996;DHT22;11664;49.774;8.650;2024-02-15T13:43:54;16.40;99.90
22996;DHT22;11664;49.774;8.650;2024-02-15T13:46:23;16.40;99.90
22996;DHT22;11664;49.774;8.650;2024-02-15T13:48:59;16.30;99.90
22996;DHT22;11664;49.774;8.650;2024-02-15T13:51:24;16.20;99.90
22996;DHT22;11664;49.774;8.650;2024-02-15T13:53:50;16.00;99.90
22996;DHT22;11664;49.774;8.650;2024-02-15T13:56:15;15.90;99.90
22996;DHT22;11664;49.774;8.650;2024-02-15T13:58:56;16.00;99.90
22996;DHT22;11664;49.774;8.650;2024-02-15T14:01:47;16.10;99.90
22996;DHT22;11664;49.774;8.650;2024-02-15T14:04:14;16.10;99.90
22996;DHT22;11664;49.774;8.650;2024-02-15T14:06:41;16.10;99.90
22996;DHT22;11664;49.774;8.650;2024-02-15T14:09:15;16.00;99.90
22996;DHT22;11664;49.774;8.650;2024-02-15T14:11:45;16.10;99.90
22996;DHT22;11664;49.774;8.650;2024-02-15T14:14:15;16.20;99.90
22996;DHT22;11664;49.774;8.650;2024-02-15T14:16:42;16.10;99.90
22996;DHT22;11664;49.774;8.650;2024-02-15T14:19:14;16.20;99.90
22996;DHT22;11664;49.774;8.650;2024-02-15T14:21:46;16.20;99.90
22996;DHT22;11664;49.774;8.650;2024-02-15T14:24:13;16.30;99.90
22996;DHT22;11664;49.774;8.650;2024-02-15T14:26:39;16.20;99.90
22996;DHT22;11664;49.774;8.650;2024-02-15T14:29:10;16.20;99.90
22996;DHT22;11664;49.774;8.650;2024-02-15T14:31:47;16.20;99.90
22996;DHT22;11664;49.774;8.650;2024-02-15T14:34:34;16.10;99.90
22996;DHT22;11664;49.774;8.650;2024-02-15T14:37:01;16.10;99.90
22996;DHT22;11664;49.774;8.650;2024-02-15T14:39:27;15.90;99.90
22996;DHT22;11664;49.774;8.650;2024-02-15T14:42:02;16.00;99.90
22996;DHT22;11664;49.774;8.650;2024-02-15T14:44:37;15.90;99.90
22996;DHT22;11664;49.774;8.650;2024-02-15T14:47:02;15.90;99.90
22996;DHT22;11664;49.774;8.650;2024-02-15T14:49:32;16.00;99.90
22996;DHT22;11664;49.774;8.650;2024-02-15T14:52:00;16.00;99.90
22996;DHT22;11664;49.774;8.650;2024-02-15T14:54:35;15.90;99.90
22996;DHT22;11664;49.774;8.650;2024-02-15T14:57:23;15.70;99.90
22996;DHT22;11664;49.774;8.650;2024-02-15T14:59:49;15.70;99.90
22996;DHT22;11664;49.774;8.650;2024-02-15T15:02:18;15.70;99.90
22996;DHT22;11664;49.774;8.650;2024-02-15T15:04:44;15.70;99.90
22996;DHT22;11664;49.774;8.650;2024-02-15T15:07:41;15.70;99.90
22996;DHT22;11664;49.774;8.650;2024-02-15T15:10:31;15.70;99.90
22996;DHT22;11664;49.774;8.650;2024-02-15T15:13:24;15.60;99.90
22996;DHT22;11664;49.774;8.650;2024-02-15T15:15:53;15.50;99.90
22996;DHT22;11664;49.774;8.650;2024-02-15T15:18:19;15.40;99.90
22996;DHT22;11664;49.774;8.650;2024-02-15T15:20:44;15.30;99.90
22996;DHT22;11664;49.774;8.650;2024-02-15T15:23:10;15.30;99.90
22996;DHT22;11664;49.774;8.650;2024-02-15T15:25:42;15.30;99.90
22996;DHT22;11664;49.774;8.650;2024-02-15T15:28:10;15.30;99.90
22996;DHT22;11664;49.774;8.650;2024-02-15T15:30:37;15.20;99.90
22996;DHT22;11664;49.774;8.650;2024-02-15T15:33:05;15.20;99.90
22996;DHT22;11664;49.774;8.650;2024-02-15T15:35:34;15.10;99.90
22996;DHT22;11664;49.774;8.650;2024-02-15T15:38:00;15.00;99.90
22996;DHT22;11664;49.774;8.650;2024-02-15T15:40:26;15.00;99.90
22996;DHT22;11664;49.774;8.650;2024-02-15T15:42:52;15.00;99.90
22996;DHT22;11664;49.774;8.650;2024-02-15T15:45:17;15.00;99.90
22996;DHT22;11664;49.774;8.650;2024-02-15T15:47:46;14.90;99.90
22996;DHT22;11664;49.774;8.650;2024-02-15T15:50:21;14.90;99.90
22996;DHT22;11664;49.774;8.650;2024-02-15T15:52:47;14.80;99.90
22996;DHT22;11664;49.774;8.650;2024-02-15T15:55:22;14.80;99.90
22996;DHT22;11664;49.774;8.650;2024-02-15T15:57:48;14.80;99.90
22996;DHT22;11664;49.774;8.650;2024-02-15T16:00:16;14.80;99.90
22996;DHT22;11664;49.774;8.650;2024-02-15T16:02:45;14.70;99.90
22996;DHT22;11664;49.774;8.650;2024-02-15T16:05:12;14.60;99.90
22996;DHT22;11664;49.774;8.650;2024-02-15T16:07:38;14.50;99.90